Time;durP1;ratioP1;P1;durP2;ratioP2;P2;SDS_P1;SDS_P2;PMS_P1;PMS_P2;Temp;Humidity;BMP_temperature;BMP_pressure;BME280_temperature;BME280_humidity;BME280_pressure;Samples;Min_cycle;Max_cycle;Signal;HPM_P1;HPM_P2
2021/06/23 00:01:51;;;;;;;;;29.00;26.25;;;;;22.95;45.47;101360.50;5057469;28;45539;-50
2021/06/23 00:04:17;;;;;;;;;30.50;26.25;;;;;22.94;45.32;101354.34;5057789;28;45936;-52
2021/06/23 00:06:42;;;;;;;;;29.75;26.00;;;;;22.95;45.27;101361.34;5059283;28;45469;-51
2021/06/23 00:09:07;;;;;;;;;24.25;23.75;;;;;22.93;45.29;101351.81;5058716;28;45544;-48
2021/06/23 00:11:45;;;;;;;;;28.50;27.75;;;;;22.95;45.33;101352.56;5059141;28;45275;-51
2021/06/23 00:14:12;;;;;;;;;27.75;25.50;;;;;22.95;45.49;101357.88;5058778;28;45300;-47
2021/06/23 00:16:37;;;;;;;;;27.25;25.00;;;;;22.94;45.22;101358.81;5059348;28;45227;-48
2021/06/23 00:19:04;;;;;;;;;24.75;22.75;;;;;22.94;45.25;101350.88;5059028;28;46587;-49
2021/06/23 00:21:29;;;;;;;;;28.00;25.75;;;;;22.93;45.49;101351.81;5058700;28;45387;-52
2021/06/23 00:23:54;;;;;;;;;27.00;24.25;;;;;22.93;45.35;101362.38;5058734;28;45314;-49
2021/06/23 00:26:20;;;;;;;;;31.50;25.00;;;;;22.93;45.60;101354.44;5058670;28;45670;-51
2021/06/23 00:28:45;;;;;;;;;27.50;26.50;;;;;22.92;45.31;101356.25;5057237;28;45966;-52
2021/06/23 00:31:10;;;;;;;;;25.75;21.25;;;;;22.91;45.74;101349.25;5058586;28;45339;-54
2021/06/23 00:33:37;;;;;;;;;26.75;25.00;;;;;22.91;45.68;101343.97;5058917;28;45347;-51
2021/06/23 00:36:03;;;;;;;;;30.00;27.50;;;;;22.93;45.34;101352.66;5058761;28;45494;-55
2021/06/23 00:38:28;;;;;;;;;25.25;24.00;;;;;22.92;45.03;101347.47;5058090;28;46931;-49
2021/06/23 00:40:54;;;;;;;;;22.50;22.00;;;;;22.93;45.44;101357.09;5058235;28;45255;-49
2021/06/23 00:43:20;;;;;;;;;28.00;23.25;;;;;22.92;45.36;101348.31;5058239;28;45304;-49
2021/06/23 00:45:45;;;;;;;;;24.00;23.50;;;;;22.94;45.16;101358.81;5057079;28;45575;-50
2021/06/23 00:48:21;;;;;;;;;27.50;26.75;;;;;22.93;45.52;101360.56;5056807;28;46155;-48
2021/06/23 00:50:48;;;;;;;;;24.25;22.50;;;;;22.92;45.37;101358.03;5058076;28;45787;-62
2021/06/23 00:53:14;;;;;;;;;23.25;22.75;;;;;22.90;45.48;101352.84;5058267;28;45434;-61
2021/06/23 00:55:40;;;;;;;;;20.25;20.25;;;;;22.92;45.41;101360.66;5058682;28;45531;-49
2021/06/23 00:58:06;;;;;;;;;24.75;21.75;;;;;22.90;45.31;101358.13;5058131;28;45335;-51
2021/06/23 01:00:34;;;;;;;;;21.00;20.50;;;;;22.90;45.32;101360.78;5056735;28;45812;-55
2021/06/23 01:03:02;;;;;;;;;24.00;20.50;;;;;22.90;45.48;101363.41;5057349;28;45483;-60
2021/06/23 01:05:28;;;;;;;;;22.75;21.25;;;;;22.89;45.35;101356.41;5057870;28;45472;-55
2021/06/23 01:07:54;;;;;;;;;24.00;22.00;;;;;22.85;45.02;101358.41;5057767;28;45363;-49
2021/06/23 01:10:20;;;;;;;;;24.25;22.25;;;;;22.87;45.20;101353.00;5057868;28;45315;-51
2021/06/23 01:13:21;;;;;;;;;21.00;20.25;;;;;22.88;45.30;101361.78;5058091;28;45406;-48
2021/06/23 01:15:48;;;;;;;;;23.75;22.50;;;;;22.87;45.34;101357.47;5034475;28;45435;-50
2021/06/23 01:18:14;;;;;;;;;32.00;25.50;;;;;22.85;45.22;101358.41;5057613;28;46254;-50
2021/06/23 01:20:42;;;;;;;;;24.50;24.50;;;;;22.88;45.24;101359.13;5058029;28;45362;-48
2021/06/23 01:23:08;;;;;;;;;24.00;21.25;;;;;22.87;45.36;101353.00;5058180;28;45434;-52
2021/06/23 01:25:33;;;;;;;;;23.50;22.75;;;;;22.88;45.49;101361.78;5057981;28;45610;-51
2021/06/23 01:27:58;;;;;;;;;22.00;21.25;;;;;22.89;45.35;101360.84;5056232;28;48274;-50
2021/06/23 01:30:24;;;;;;;;;19.75;19.75;;;;;22.87;45.23;101358.28;5057539;28;45232;-47
2021/06/23 01:32:49;;;;;;;;;22.50;21.00;;;;;22.88;45.45;101359.13;5057579;28;45506;-48
2021/06/23 01:35:16;;;;;;;;;30.25;28.50;;;;;22.87;45.17;101362.75;5056485;28;45375;-48
2021/06/23 01:37:41;;;;;;;;;23.00;22.00;;;;;22.83;45.42;101357.63;5057556;28;46441;-51
2021/06/23 01:40:07;;;;;;;;;25.75;23.75;;;;;22.84;45.06;101364.63;5057821;28;45335;-49
2021/06/23 01:42:33;;;;;;;;;24.50;23.50;;;;;22.83;45.38;101357.63;5057549;28;45185;-54
2021/06/23 01:44:59;;;;;;;;;29.75;25.50;;;;;22.85;45.39;101361.03;5057437;28;45504;-47
2021/06/23 01:47:25;;;;;;;;;25.25;22.00;;;;;22.85;45.18;101362.81;5057111;28;46594;-51
2021/06/23 01:49:50;;;;;;;;;25.00;22.75;;;;;22.84;45.62;101354.03;5056987;28;45358;-48
2021/06/23 01:52:15;;;;;;;;;26.75;22.75;;;;;22.85;45.45;101360.16;5057288;28;45367;-48
2021/06/23 01:54:42;;;;;;;;;24.25;23.50;;;;;22.85;45.26;101363.69;5057678;28;45517;-49
2021/06/23 01:57:10;;;;;;;;;24.75;23.75;;;;;22.86;45.48;101359.22;5057361;28;46269;-53
2021/06/23 01:59:35;;;;;;;;;24.50;24.25;;;;;22.84;45.18;101364.63;5057038;28;45818;-48
2021/06/23 02:02:04;;;;;;;;;28.25;25.75;;;;;22.86;45.30;101359.22;5057023;28;45914;-48
2021/06/23 02:04:49;;;;;;;;;25.75;23.50;;;;;22.85;45.20;101358.41;5057219;28;45529;-48
2021/06/23 02:07:34;;;;;;;;;24.25;21.75;;;;;22.86;45.24;101356.59;5056970;28;46338;-54
2021/06/23 02:10:02;;;;;;;;;28.25;26.25;;;;;22.86;45.06;101361.88;5056918;28;45907;-61
2021/06/23 02:12:30;;;;;;;;;26.75;24.50;;;;;22.86;45.21;101356.59;5057285;28;46186;-61
2021/06/23 02:15:00;;;;;;;;;28.00;25.00;;;;;22.85;45.32;101354.88;5057214;28;45454;-58
2021/06/23 02:17:28;;;;;;;;;27.50;23.50;;;;;22.83;45.13;101349.69;5055784;28;45658;-59
2021/06/23 02:19:55;;;;;;;;;21.75;21.00;;;;;22.84;45.61;101361.97;5056698;28;46044;-58
2021/06/23 02:22:26;;;;;;;;;29.00;26.00;;;;;22.83;45.57;101347.06;5055565;28;45450;-57
2021/06/23 02:24:55;;;;;;;;;23.50;22.50;;;;;22.81;45.35;101343.63;5056907;28;45265;-56
2021/06/23 02:27:22;;;;;;;;;25.25;24.25;;;;;22.79;45.28;101342.88;5056544;28;45416;-60
2021/06/23 02:29:49;;;;;;;;;26.75;23.25;;;;;22.83;45.34;101349.69;5056717;28;45814;-51
2021/06/23 02:32:18;;;;;;;;;28.50;26.25;;;;;22.83;45.51;101344.41;5056812;28;45421;-49
2021/06/23 02:34:47;;;;;;;;;30.25;25.75;;;;;22.83;45.51;101349.69;5057086;28;45574;-49
2021/06/23 02:37:13;;;;;;;;;26.00;23.00;;;;;22.83;45.39;101352.34;5056832;28;46246;-47
2021/06/23 02:39:39;;;;;;;;;28.00;23.50;;;;;22.82;45.29;101355.09;5056424;28;45370;-54
2021/06/23 02:42:05;;;;;;;;;24.00;24.00;;;;;22.84;45.46;101354.03;5056530;28;45494;-57
2021/06/23 02:44:31;;;;;;;;;25.25;25.25;;;;;22.83;45.53;101362.03;5056593;28;45458;-52
2021/06/23 02:46:58;;;;;;;;;25.50;24.00;;;;;22.84;45.46;101364.63;5056287;28;45299;-55
2021/06/23 02:49:25;;;;;;;;;22.25;20.50;;;;;22.84;45.45;101364.63;5056413;28;45401;-57
2021/06/23 02:51:52;;;;;;;;;22.25;21.50;;;;;22.83;45.43;101362.03;5056624;28;45729;-51
2021/06/23 02:54:19;;;;;;;;;25.00;20.25;;;;;22.84;45.40;101364.63;5056519;28;45607;-50
2021/06/23 02:56:44;;;;;;;;;20.50;20.00;;;;;22.78;45.62;101351.72;5056038;28;46219;-50
2021/06/23 02:59:12;;;;;;;;;22.50;21.25;;;;;22.84;45.36;101363.75;5056268;28;45530;-51
2021/06/23 03:01:38;;;;;;;;;25.75;22.00;;;;;22.73;45.57;101351.16;5056421;28;45468;-50
2021/06/23 03:04:03;;;;;;;;;25.75;21.25;;;;;22.82;45.35;101358.56;5055207;28;45668;-51
2021/06/23 03:06:29;;;;;;;;;22.75;20.25;;;;;22.81;45.50;101362.13;5056051;28;46092;-57
2021/06/23 03:08:54;;;;;;;;;22.50;21.50;;;;;22.81;45.49;101356.84;5037978;28;45415;-61
2021/06/23 03:11:20;;;;;;;;;24.25;20.25;;;;;22.84;45.44;101364.63;5056228;28;45280;-61
2021/06/23 03:13:45;;;;;;;;;22.00;20.25;;;;;22.83;45.74;101362.91;5056635;28;45528;-53
2021/06/23 03:16:11;;;;;;;;;24.75;20.50;;;;;22.82;45.61;101355.91;5055872;28;46112;-57
2021/06/23 03:18:36;;;;;;;;;20.25;18.25;;;;;22.82;45.48;101361.19;5055946;28;45247;-51
2021/06/23 03:21:05;;;;;;;;;18.50;18.00;;;;;22.82;45.57;101355.09;5056096;28;45645;-51
2021/06/23 03:23:30;;;;;;;;;20.50;19.75;;;;;22.81;45.35;101359.50;5056132;28;45370;-58
2021/06/23 03:25:56;;;;;;;;;17.75;17.50;;;;;22.80;45.46;101352.50;5055678;28;45654;-61
2021/06/23 03:28:21;;;;;;;;;20.75;17.50;;;;;22.79;45.42;101350.78;5055825;28;45432;-55
2021/06/23 03:30:47;;;;;;;;;17.75;17.00;;;;;22.81;45.83;101356.00;5059768;28;45405;-58
2021/06/23 03:33:12;;;;;;;;;15.00;13.50;;;;;22.79;45.60;101358.72;5059844;28;45408;-52
2021/06/23 03:35:38;;;;;;;;;17.00;16.75;;;;;22.80;45.34;101362.25;5059420;28;46056;-54
2021/06/23 03:38:03;;;;;;;;;16.75;16.50;;;;;22.78;45.63;101356.19;5059235;28;45355;-53
2021/06/23 03:40:29;;;;;;;;;17.00;15.25;;;;;22.80;45.62;101357.78;5059453;28;45413;-55
2021/06/23 03:42:55;;;;;;;;;13.50;13.50;;;;;22.80;45.47;101351.66;5059461;28;45240;-58
2021/06/23 03:45:20;;;;;;;;;14.25;14.25;;;;;22.80;45.43;101357.78;5059148;28;45312;-60
2021/06/23 03:47:46;;;;;;;;;15.00;13.75;;;;;22.78;45.54;101353.53;5059551;28;45232;-58
2021/06/23 03:50:13;;;;;;;;;16.50;15.00;;;;;22.79;45.51;101356.09;5059290;28;45312;-60
2021/06/23 03:52:39;;;;;;;;;13.50;13.50;;;;;22.79;45.35;101364.00;5059469;28;45525;-60
2021/06/23 03:55:07;;;;;;;;;15.75;15.00;;;;;22.78;45.65;101364.94;5059121;28;46295;-61
2021/06/23 03:57:32;;;;;;;;;14.75;14.25;;;;;22.77;45.53;101365.03;5059025;28;45996;-60
2021/06/23 03:59:57;;;;;;;;;12.75;12.75;;;;;22.77;45.68;101371.16;5059150;28;45340;-48
2021/06/23 04:02:23;;;;;;;;;15.00;14.00;;;;;22.78;45.41;101375.53;5059292;28;45383;-52
2021/06/23 04:04:48;;;;;;;;;10.50;10.50;;;;;22.75;45.43;101373.06;5059184;28;46095;-54
2021/06/23 04:07:14;;;;;;;;;12.25;12.25;;;;;22.76;45.38;101373.91;5058956;28;45269;-58
2021/06/23 04:09:40;;;;;;;;;12.00;11.00;;;;;22.75;45.50;101373.06;5059006;28;45248;-50
2021/06/23 04:12:06;;;;;;;;;13.00;12.00;;;;;22.74;45.44;101371.38;5059144;28;45235;-49
2021/06/23 04:14:31;;;;;;;;;15.00;13.00;;;;;22.75;45.58;101373.06;5058768;28;47020;-48
2021/06/23 04:16:57;;;;;;;;;14.25;13.00;;;;;22.74;45.38;101376.66;5058714;28;45247;-50
2021/06/23 04:19:23;;;;;;;;;18.00;13.75;;;;;22.75;45.58;101386.28;5058848;28;45235;-48
2021/06/23 04:21:49;;;;;;;;;15.25;13.50;;;;;22.73;45.44;101382.88;5059244;28;45731;-53
2021/06/23 04:24:14;;;;;;;;;15.50;13.50;;;;;22.73;45.58;101390.78;5058290;28;46471;-49
2021/06/23 04:26:40;;;;;;;;;15.00;12.75;;;;;22.72;45.62;101391.72;5058664;28;45858;-49
2021/06/23 04:29:05;;;;;;;;;13.25;11.75;;;;;22.71;45.53;101384.75;5058734;28;45495;-48
2021/06/23 04:31:31;;;;;;;;;13.50;12.00;;;;;22.72;45.52;101391.72;5058905;28;45528;-48
2021/06/23 04:33:57;;;;;;;;;14.75;13.75;;;;;22.71;45.49;101390.03;5058459;28;47190;-49
2021/06/23 04:36:22;;;;;;;;;14.25;13.25;;;;;22.70;45.27;101399.75;5058458;28;45433;-49
2021/06/23 04:38:47;;;;;;;;;14.50;14.50;;;;;22.68;45.37;101400.75;5058678;28;45356;-49
2021/06/23 04:41:13;;;;;;;;;22.75;19.75;;;;;22.69;45.61;101397.19;5057740;28;45629;-49
2021/06/23 04:43:38;;;;;;;;;30.00;24.50;;;;;22.68;45.66;101401.63;5057084;28;47390;-48
2021/06/23 04:46:03;;;;;;;;;29.00;27.00;;;;;22.68;45.77;101400.75;5058368;28;45342;-48
2021/06/23 04:48:30;;;;;;;;;24.75;23.25;;;;;22.68;45.71;101411.31;5057159;28;45383;-48
2021/06/23 04:50:55;;;;;;;;;23.75;23.75;;;;;22.66;45.78;101405.25;5058679;28;45552;-53
2021/06/23 04:53:21;;;;;;;;;22.25;21.00;;;;;22.64;45.75;101399.25;5058522;28;45275;-53
2021/06/23 04:55:46;;;;;;;;;24.75;20.50;;;;;22.62;45.93;101394.03;5058095;28;47000;-51
2021/06/23 04:58:11;;;;;;;;;25.00;19.00;;;;;22.62;45.96;101401.09;5058392;28;45292;-49
2021/06/23 05:00:37;;;;;;;;;18.25;18.00;;;;;22.60;45.86;101402.97;5058442;28;45363;-51
2021/06/23 05:03:02;;;;;;;;;19.75;18.00;;;;;22.60;45.88;101402.97;5058065;28;46025;-51
2021/06/23 05:05:28;;;;;;;;;15.25;14.00;;;;;22.58;45.88;101407.50;5058130;28;45248;-50
2021/06/23 05:07:54;;;;;;;;;16.00;16.00;;;;;22.54;45.92;101405.00;5058058;28;45291;-49
2021/06/23 05:10:20;;;;;;;;;15.50;12.75;;;;;22.52;45.69;101400.75;5058575;28;45398;-55
2021/06/23 05:12:45;;;;;;;;;14.25;13.25;;;;;22.52;46.02;101406.91;5057831;28;46514;-50
2021/06/23 05:15:11;;;;;;;;;12.75;11.25;;;;;22.52;45.80;101417.47;5057823;28;45426;-50
2021/06/23 05:17:37;;;;;;;;;14.50;14.25;;;;;22.51;45.98;101410.47;5058029;28;45411;-51
2021/06/23 05:20:04;;;;;;;;;13.75;13.25;;;;;22.50;45.54;101413.19;5056764;28;45393;-50
2021/06/23 05:22:30;;;;;;;;;14.25;12.00;;;;;22.48;46.00;101415.94;5057507;28;45386;-50
2021/06/23 05:24:56;;;;;;;;;13.50;12.50;;;;;22.47;45.75;101424.78;5057629;28;45300;-52
2021/06/23 05:27:22;;;;;;;;;15.25;14.50;;;;;22.48;45.98;101429.13;5058089;28;45327;-50
2021/06/23 05:29:47;;;;;;;;;14.50;13.25;;;;;22.46;45.68;101427.50;5057943;28;45658;-49
2021/06/23 05:32:12;;;;;;;;;11.75;10.50;;;;;22.46;45.82;101428.34;5057526;28;45542;-50
2021/06/23 05:34:37;;;;;;;;;13.50;12.00;;;;;22.45;45.70;101424.00;5057475;28;45285;-51
2021/06/23 05:37:03;;;;;;;;;13.00;12.75;;;;;22.44;45.84;101430.22;5057634;28;45312;-60
2021/06/23 05:39:28;;;;;;;;;10.75;10.75;;;;;22.44;46.09;101432.88;5057443;28;45481;-54
2021/06/23 05:41:54;;;;;;;;;15.00;13.00;;;;;22.45;45.86;101431.94;5057700;28;46020;-59
2021/06/23 05:44:19;;;;;;;;;13.50;11.50;;;;;22.44;45.80;101435.50;5057663;28;45303;-59
2021/06/23 05:46:45;;;;;;;;;13.75;13.75;;;;;22.44;45.98;101435.50;5057399;28;45437;-52
2021/06/23 05:49:10;;;;;;;;;14.00;13.75;;;;;22.43;45.88;101436.47;5057428;28;45492;-57
2021/06/23 05:51:35;;;;;;;;;14.25;13.75;;;;;22.40;46.09;101428.66;5055792;28;46951;-52
2021/06/23 05:54:01;;;;;;;;;15.25;13.00;;;;;22.43;45.92;101433.81;5056917;28;45281;-57
2021/06/23 05:56:26;;;;;;;;;19.75;15.00;;;;;22.42;45.91;101431.25;5057363;28;45358;-59
2021/06/23 05:58:52;;;;;;;;;16.25;12.50;;;;;22.41;46.37;101430.41;5057715;28;45419;-58
2021/06/23 06:01:18;;;;;;;;;14.00;12.00;;;;;22.42;46.18;101436.53;5056967;28;45310;-57
2021/06/23 06:03:43;;;;;;;;;16.75;12.00;;;;;22.40;46.27;101433.94;5056854;28;45367;-60
2021/06/23 06:06:08;;;;;;;;;15.25;13.75;;;;;22.39;45.96;101429.59;5057308;28;45353;-52
2021/06/23 06:08:34;;;;;;;;;17.00;15.50;;;;;22.40;46.26;101444.50;5057244;28;45634;-56
2021/06/23 06:10:59;;;;;;;;;14.75;12.50;;;;;22.39;46.12;101443.66;5056936;28;45412;-54
2021/06/23 06:13:24;;;;;;;;;22.75;19.50;;;;;22.37;46.10;101444.66;5057305;28;45290;-55
2021/06/23 06:15:50;;;;;;;;;24.50;19.75;;;;;22.38;46.12;101451.66;5056992;28;45279;-52
2021/06/23 06:18:15;;;;;;;;;30.75;26.75;;;;;22.38;46.23;101459.59;5057128;28;45200;-56
2021/06/23 06:20:41;;;;;;;;;33.50;30.00;;;;;22.37;46.14;101456.09;5056727;28;46187;-52
2021/06/23 06:23:07;;;;;;;;;36.00;32.25;;;;;22.36;46.19;101449.13;5056629;28;45420;-48
2021/06/23 06:25:34;;;;;;;;;28.00;27.00;;;;;22.36;46.07;101462.31;5056943;28;45278;-57
2021/06/23 06:27:59;;;;;;;;;23.75;22.75;;;;;22.35;46.00;101463.25;5057114;28;45585;-47
2021/06/23 06:30:26;;;;;;;;;28.25;22.25;;;;;22.34;46.12;101464.19;5056909;28;45926;-48
2021/06/23 06:32:51;;;;;;;;;25.25;22.00;;;;;22.34;46.32;101471.22;5056653;28;45390;-47
2021/06/23 06:35:16;;;;;;;;;26.00;22.25;;;;;22.31;46.20;101471.41;5055662;28;45415;-45
2021/06/23 06:37:42;;;;;;;;;22.75;21.25;;;;;22.32;46.24;101466.03;5056795;28;45651;-48
2021/06/23 06:40:08;;;;;;;;;20.00;17.75;;;;;22.32;46.11;101473.13;5056420;28;45617;-48
2021/06/23 06:42:34;;;;;;;;;16.25;16.00;;;;;22.33;46.37;101477.44;5056431;28;45743;-47
2021/06/23 06:44:59;;;;;;;;;23.00;19.25;;;;;22.33;46.08;101486.25;5056657;28;45252;-47
2021/06/23 06:47:25;;;;;;;;;17.50;14.00;;;;;22.33;46.08;101477.44;5055853;28;45596;-48
2021/06/23 06:49:50;;;;;;;;;16.50;15.25;;;;;22.30;46.30;101485.56;5056361;28;46773;-46
2021/06/23 06:52:16;;;;;;;;;14.50;14.50;;;;;22.29;46.36;101483.84;5056312;28;45445;-46
2021/06/23 06:54:41;;;;;;;;;20.50;14.25;;;;;22.29;45.80;101483.84;5056511;28;45426;-48
2021/06/23 06:57:06;;;;;;;;;17.00;17.00;;;;;22.29;45.92;101481.22;5056716;28;45218;-48
2021/06/23 06:59:32;;;;;;;;;18.50;16.75;;;;;22.28;45.99;101485.63;5056199;28;46113;-49
2021/06/23 07:01:57;;;;;;;;;15.50;13.50;;;;;22.27;46.44;101483.06;5056474;28;45267;-49
2021/06/23 07:04:23;;;;;;;;;18.00;17.00;;;;;22.29;46.19;101486.50;5054591;28;45355;-52
2021/06/23 07:06:48;;;;;;;;;15.75;15.25;;;;;22.27;46.43;101483.06;5056580;28;45331;-51
2021/06/23 07:09:15;;;;;;;;;16.50;12.25;;;;;22.28;46.56;101490.06;5056081;28;45456;-48
2021/06/23 07:11:40;;;;;;;;;14.75;13.75;;;;;22.28;46.06;101496.19;5056138;28;45258;-51
2021/06/23 07:14:06;;;;;;;;;13.25;12.50;;;;;22.29;46.29;101494.41;5055057;28;45311;-51
2021/06/23 07:16:31;;;;;;;;;15.25;14.50;;;;;22.28;46.56;101495.34;5056408;28;45323;-50
2021/06/23 07:18:57;;;;;;;;;16.75;13.75;;;;;22.28;46.42;101496.19;5056354;28;46660;-51
2021/06/23 07:21:23;;;;;;;;;16.50;13.75;;;;;22.28;46.29;101503.25;5056049;28;45390;-50
2021/06/23 07:23:50;;;;;;;;;16.25;14.50;;;;;22.25;46.53;101493.72;5054593;28;45249;-48
2021/06/23 07:26:16;;;;;;;;;11.50;11.00;;;;;22.27;46.20;101505.03;5056429;28;45279;-53
2021/06/23 07:28:54;;;;;;;;;14.50;13.50;;;;;22.27;46.64;101499.75;5055848;28;45359;-52
2021/06/23 07:36:38;;;;;;;;;13.25;13.00;;;;;22.23;46.68;101499.06;5056187;28;45486;-51
2021/06/23 07:39:10;;;;;;;;;14.50;13.75;;;;;22.23;46.22;101506.16;5055464;28;46183;-48
2021/06/23 07:41:36;;;;;;;;;14.50;13.25;;;;;22.21;46.34;101506.19;5055980;28;45320;-51
2021/06/23 07:44:02;;;;;;;;;16.50;15.00;;;;;22.18;46.28;101503.75;5055806;28;45235;-51
2021/06/23 07:46:33;;;;;;;;;12.25;12.25;;;;;22.20;46.03;101511.56;5055049;28;45317;-54
2021/06/23 07:48:58;;;;;;;;;14.75;13.75;;;;;22.19;46.36;101515.16;5055952;28;46967;-55
2021/06/23 07:51:41;;;;;;;;;13.00;12.75;;;;;22.20;46.02;101511.56;5055720;28;45269;-60
2021/06/23 08:15:18;;;;;;;;;13.00;12.25;;;;;22.18;45.90;101522.22;5055423;28;45429;-47
2021/06/23 08:17:43;;;;;;;;;13.50;11.75;;;;;22.18;46.06;101519.59;5058686;28;45312;-51
2021/06/23 08:20:09;;;;;;;;;13.25;13.25;;;;;22.17;46.17;101517.00;5058620;28;46080;-59
2021/06/23 08:22:35;;;;;;;;;15.50;12.75;;;;;22.18;46.08;101511.66;5058666;28;45429;-60
2021/06/23 08:25:00;;;;;;;;;14.00;11.75;;;;;22.17;45.81;101517.88;5059073;28;45335;-48
2021/06/23 08:27:26;;;;;;;;;10.25;10.25;;;;;22.17;46.33;101512.59;5058828;28;45481;-47
2021/06/23 08:29:51;;;;;;;;;13.00;13.00;;;;;22.16;45.97;101512.69;5058521;28;46289;-52
2021/06/23 08:32:16;;;;;;;;;14.50;13.25;;;;;22.17;46.26;101514.38;5058517;28;45197;-52
2021/06/23 08:34:42;;;;;;;;;14.50;12.00;;;;;22.10;46.27;101503.28;5058731;28;45302;-48
2021/06/23 08:37:07;;;;;;;;;12.00;11.00;;;;;22.16;46.14;101513.53;5058772;28;45497;-50
2021/06/23 08:39:32;;;;;;;;;12.00;12.00;;;;;22.16;46.30;101516.16;5058241;28;46082;-51
2021/06/23 08:41:58;;;;;;;;;11.75;10.00;;;;;22.17;46.11;101509.97;5058832;28;45272;-57
2021/06/23 08:44:23;;;;;;;;;9.25;9.25;;;;;22.19;46.38;101510.75;5058431;28;45256;-58
2021/06/23 08:46:50;;;;;;;;;12.75;11.75;;;;;22.23;45.99;101508.78;5058690;28;45615;-51
2021/06/23 08:49:16;;;;;;;;;13.25;13.25;;;;;22.24;46.31;101508.69;5058166;28;46246;-54
2021/06/23 08:51:43;;;;;;;;;10.50;10.50;;;;;22.25;46.05;101509.56;5058549;28;45433;-51
2021/06/23 08:54:08;;;;;;;;;14.00;11.75;;;;;22.28;46.27;101511.19;5058452;28;45434;-53
2021/06/23 08:56:34;;;;;;;;;11.75;11.50;;;;;22.31;46.11;101513.66;5058541;28;45231;-48
2021/06/23 08:59:02;;;;;;;;;12.75;11.75;;;;;22.33;46.29;101517.06;5058308;28;46172;-58
2021/06/23 09:01:28;;;;;;;;;14.25;12.00;;;;;22.34;45.90;101513.50;5056550;28;45391;-48
2021/06/23 09:04:01;;;;;;;;;10.75;10.75;;;;;22.36;46.00;101511.63;5056851;28;45457;-50
2021/06/23 09:06:49;;;;;;;;;14.00;13.00;;;;;22.38;46.05;101510.59;5058311;28;45510;-48
2021/06/23 09:09:24;;;;;;;;;13.75;13.50;;;;;22.40;45.73;101513.19;5057818;28;45373;-50
2021/06/23 09:11:56;;;;;;;;;13.00;13.00;;;;;22.41;46.00;101514.94;5057717;28;45964;-47
2021/06/23 09:14:23;;;;;;;;;14.50;12.75;;;;;22.42;45.76;101514.00;5058105;28;45343;-53
2021/06/23 09:17:07;;;;;;;;;11.25;11.25;;;;;22.44;46.03;101509.47;5057123;28;45519;-47
2021/06/23 09:19:44;;;;;;;;;11.00;11.00;;;;;22.46;45.69;101520.81;5056470;28;47723;-54
2021/06/23 09:22:42;;;;;;;;;12.00;12.00;;;;;22.44;45.82;101517.38;5056510;28;46349;-52
2021/06/23 09:25:13;;;;;;;;;11.25;11.25;;;;;22.48;45.43;101526.03;5057985;28;45330;-51
2021/06/23 09:27:47;;;;;;;;;13.25;11.50;;;;;22.49;45.77;101525.09;5056245;28;45226;-51
2021/06/23 09:30:25;;;;;;;;;13.50;13.50;;;;;22.51;45.69;101521.44;5057621;28;46114;-52
2021/06/23 09:33:13;;;;;;;;;13.50;11.75;;;;;22.51;45.37;101524.06;5057588;28;45343;-51
2021/06/23 09:35:44;;;;;;;;;12.50;12.00;;;;;22.51;45.67;101526.72;5057538;28;45266;-51
2021/06/23 09:38:33;;;;;;;;;13.50;13.50;;;;;22.53;45.51;101519.56;5056517;28;45462;-52
2021/06/23 09:41:00;;;;;;;;;11.50;11.50;;;;;22.52;45.76;101520.50;5057425;28;46598;-52
2021/06/23 09:43:37;;;;;;;;;12.00;12.00;;;;;22.53;45.68;101514.28;5057454;28;45336;-53
2021/06/23 09:46:15;;;;;;;;;14.25;14.25;;;;;22.55;45.70;101522.94;5057977;28;45351;-49
2021/06/23 09:48:41;;;;;;;;;14.00;12.00;;;;;22.56;45.61;101521.19;5056422;28;45297;-51
2021/06/23 09:51:20;;;;;;;;;12.00;12.00;;;;;22.58;45.47;101518.44;5056117;28;47644;-53
2021/06/23 09:53:47;;;;;;;;;14.50;11.25;;;;;22.58;45.66;101521.09;5056938;28;46116;-51
2021/06/23 09:56:28;;;;;;;;;13.25;12.00;;;;;22.60;45.41;101525.34;5057617;28;45214;-50
2021/06/23 09:58:55;;;;;;;;;13.75;12.00;;;;;22.60;45.45;101517.41;5057454;28;45250;-53
2021/06/23 10:01:22;;;;;;;;;11.00;11.00;;;;;22.63;45.51;101521.72;5057234;28;46247;-51
2021/06/23 10:04:04;;;;;;;;;12.00;10.75;;;;;22.63;45.78;101509.34;5057211;28;45283;-49
2021/06/23 10:06:43;;;;;;;;;15.00;14.50;;;;;22.64;45.71;101521.63;5055886;28;45265;-51
2021/06/23 10:09:20;;;;;;;;;13.00;12.00;;;;;22.64;45.84;101518.97;5057541;28;45434;-49
2021/06/23 10:11:54;;;;;;;;;13.00;11.25;;;;;22.66;45.57;101524.16;5056925;28;46184;-51
2021/06/23 10:14:21;;;;;;;;;13.25;12.25;;;;;22.64;45.38;101526.06;5057147;28;45418;-50
2021/06/23 10:16:48;;;;;;;;;15.00;15.00;;;;;22.67;45.69;101531.16;5057177;28;45405;-52
2021/06/23 10:19:14;;;;;;;;;13.00;13.00;;;;;22.67;45.67;101531.16;5057163;28;45334;-51
2021/06/23 10:21:40;;;;;;;;;16.00;12.00;;;;;22.66;45.43;101525.03;5056765;28;46359;-51
2021/06/23 10:24:08;;;;;;;;;12.75;12.00;;;;;22.67;45.49;101533.81;5055585;28;45291;-55
2021/06/23 10:26:38;;;;;;;;;14.25;13.00;;;;;22.67;45.75;101531.16;5057300;28;45402;-53
2021/06/23 10:29:06;;;;;;;;;10.75;10.75;;;;;22.68;45.58;101540.78;5057364;28;45511;-50
2021/06/23 10:31:32;;;;;;;;;13.50;12.00;;;;;22.67;45.70;101532.03;5056799;28;46129;-51
2021/06/23 10:33:58;;;;;;;;;13.00;12.50;;;;;22.68;45.57;101530.22;5056740;28;45824;-50
2021/06/23 10:36:24;;;;;;;;;11.00;11.00;;;;;22.67;45.71;101532.03;5056820;28;45532;-52
2021/06/23 10:38:51;;;;;;;;;15.25;14.00;;;;;22.68;45.49;101533.75;5055773;28;45331;-52
2021/06/23 10:41:17;;;;;;;;;13.00;12.25;;;;;22.67;45.84;101534.66;5056480;28;45452;-49
2021/06/23 10:43:43;;;;;;;;;14.25;14.25;;;;;22.68;45.65;101538.16;5056544;28;45688;-50
2021/06/23 10:46:10;;;;;;;;;16.50;14.00;;;;;22.67;45.90;101539.97;5056757;28;45327;-54
2021/06/23 10:48:55;;;;;;;;;12.75;12.75;;;;;22.68;45.74;101540.78;5057201;28;45296;-51
2021/06/23 10:51:25;;;;;;;;;14.25;14.00;;;;;22.67;45.60;101533.81;5056402;28;46226;-53
2021/06/23 10:53:51;;;;;;;;;12.00;12.00;;;;;22.66;45.31;101540.03;5056368;28;45843;-52
2021/06/23 10:56:41;;;;;;;;;12.50;12.50;;;;;22.68;45.38;101548.72;5056450;28;45426;-54
2021/06/23 10:59:31;;;;;;;;;15.00;13.25;;;;;22.69;45.60;101542.50;5056808;28;45251;-50
2021/06/23 11:02:11;;;;;;;;;13.25;13.25;;;;;22.69;45.34;101545.16;5056126;28;46985;-51
2021/06/23 11:04:57;;;;;;;;;15.25;13.50;;;;;22.70;45.74;101544.22;5056522;28;45733;-50
2021/06/23 11:07:45;;;;;;;;;15.00;13.50;;;;;22.70;45.58;101547.72;5056393;28;45319;-51
2021/06/23 11:10:18;;;;;;;;;18.75;15.75;;;;;22.72;45.65;101549.41;5056419;28;45497;-54
2021/06/23 11:12:46;;;;;;;;;15.75;15.00;;;;;22.71;45.73;101556.50;5055996;28;46910;-50
2021/06/23 11:15:16;;;;;;;;;13.75;13.75;;;;;22.72;45.54;101550.28;5056211;28;45385;-51
2021/06/23 11:17:43;;;;;;;;;14.00;13.00;;;;;22.71;45.66;101559.13;5056066;28;45220;-52
2021/06/23 11:20:38;;;;;;;;;15.00;14.00;;;;;22.73;45.58;101559.91;5056617;28;45236;-51
2021/06/23 11:23:04;;;;;;;;;13.75;12.50;;;;;22.75;45.65;101562.47;5028428;28;46313;-54
2021/06/23 11:25:34;;;;;;;;;16.50;15.00;;;;;22.75;45.84;101559.81;5055869;28;45345;-51
2021/06/23 11:28:08;;;;;;;;;16.00;13.50;;;;;22.75;45.80;101567.75;5056071;28;45404;-47
2021/06/23 11:30:34;;;;;;;;;13.75;13.50;;;;;22.73;45.33;101567.84;5056188;28;45521;-50
2021/06/23 11:33:28;;;;;;;;;13.25;13.25;;;;;22.74;45.96;101568.69;5055738;28;45361;-51
2021/06/23 11:35:59;;;;;;;;;16.25;14.00;;;;;22.73;45.71;101573.13;5055818;28;45845;-49
2021/06/23 11:38:25;;;;;;;;;15.25;15.25;;;;;22.72;45.85;101570.56;5055828;28;45280;-49
2021/06/23 11:40:53;;;;;;;;;14.00;12.50;;;;;22.73;45.58;101575.78;5056033;28;45877;-50